Thalia — FPCS — position and weather

sailwx.info

Track history (hours):
 
Tides and Currents Weather Stations Pressure Air Temp Water Temp Dewpoint Dewpoint Depression Visibility Wind Speed Wind Dir Waves Ship Positions

Oceanographic research ship Thalia (France)

Detailed information on ship capabilities available from University of Delaware's Ocean Information Center.

Last reported at 2019-Jun-19 20:27 UTC. Time now 2019-Jun-19 20:50 UTC.
Position N 49°20' W 000°12'.

Length 25 m; beam 7 m.

Type: Fishing. MMSI: 227270000.

Date/timePositionNaut miles runAvg speedWind from/ knotsBaromVisibWave heightAir tempDewpointWater temp
2019-Jun-19 20:27N 49°20' W 000°12'0 0.0
2019-Jun-19 19:54N 49°20' W 000°12'0 0.0
2019-Jun-19 19:27N 49°20' W 000°12'0 0.0
2019-Jun-19 18:57N 49°20' W 000°12'0 0.0
2019-Jun-19 18:30N 49°20' W 000°12'0 0.0
2019-Jun-19 18:00N 49°20' W 000°12'0 0.0
2019-Jun-19 17:30N 49°20' W 000°12'0 0.0
2019-Jun-19 17:00N 49°20' W 000°12'0 0.8
2019-Jun-19 16:30N 49°20' W 000°12'1 1.9
2019-Jun-19 16:00N 49°19' W 000°12'1 1.2
2019-Jun-19 15:31N 49°19' W 000°11'1 2.3
2019-Jun-19 15:00N 49°20' W 000°10'1 1.1
2019-Jun-19 14:30N 49°20' W 000°11'0 0.8
2019-Jun-19 14:00N 49°20' W 000°12'1 1.2
2019-Jun-19 13:30N 49°20' W 000°12'0 0.6
2019-Jun-19 13:00N 49°20' W 000°13'0 0.9
2019-Jun-19 12:30N 49°20' W 000°13'1 1.0
2019-Jun-19 12:00N 49°19' W 000°14'1 1.9
2019-Jun-19 11:30N 49°20' W 000°14'4 7.3
2019-Jun-19 11:00N 49°24' W 000°13'510.2
2019-Jun-19 10:30N 49°29' W 000°13'5 9.7
2019-Jun-19 10:00N 49°34' W 000°13'5 9.1
2019-Jun-19 09:30N 49°38' W 000°13'2 4.2
2019-Jun-19 09:00N 49°38' W 000°10'2 4.3
2019-Jun-19 08:30N 49°38' W 000°06'2 4.4
2019-Jun-19 08:00N 49°38' W 000°03'1 2.1
2019-Jun-19 07:30N 49°38' W 000°01'2 3.7
2019-Jun-19 07:00N 49°37' E 000°01'2 3.8
2019-Jun-19 06:30N 49°38' E 000°03'2 3.1
2019-Jun-19 06:00N 49°40' E 000°03'2 3.5
2019-Jun-19 05:30N 49°40' E 000°06'1 1.4
2019-Jun-19 05:00N 49°40' E 000°07'0 0.5
2019-Jun-19 04:30N 49°41' E 000°07'0 0.8
2019-Jun-19 04:00N 49°41' E 000°07'0 0.8
2019-Jun-19 03:30N 49°41' E 000°06'0 0.7
2019-Jun-19 03:00N 49°40' E 000°06'1 1.4
2019-Jun-19 02:00N 49°42' E 000°07'1 1.3
2019-Jun-19 01:30N 49°41' E 000°06'0 0.7
2019-Jun-19 01:00N 49°41' E 000°06'1 2.3
2019-Jun-19 00:30N 49°42' E 000°07'0 0.2
2019-Jun-19 00:00N 49°42' E 000°07'1 2.0
2019-Jun-18 23:30N 49°41' E 000°06'0 0.7
2019-Jun-18 23:00N 49°41' E 000°07'0 0.9
2019-Jun-18 22:30N 49°42' E 000°07'0 0.5
2019-Jun-18 22:00N 49°42' E 000°07'0 0.4
2019-Jun-18 21:30N 49°42' E 000°08'0 0.6
2019-Jun-18 21:00N 49°42' E 000°08'0 0.8
2019-Jun-18 20:30N 49°42' E 000°07'2 3.1
2019-Jun-18 20:00N 49°41' E 000°06'1 1.0
2019-Jun-18 19:30N 49°41' E 000°07'1 1.7
2019-Jun-18 19:00N 49°42' E 000°07'0 0.1
2019-Jun-18 18:30N 49°42' E 000°07'1 1.1
2019-Jun-18 18:00N 49°41' E 000°07'0 1.0
2019-Jun-18 17:30N 49°41' E 000°06'3 6.4
2019-Jun-18 17:00N 49°39' E 000°02'3 6.8
2019-Jun-18 16:30N 49°38' W 000°03'1 1.4
2019-Jun-18 16:00N 49°37' W 000°03'2 4.3
2019-Jun-18 15:30N 49°37' W 000°06'2 4.3
2019-Jun-18 15:00N 49°37' W 000°10'1 2.0
2019-Jun-18 14:30N 49°36' W 000°10'2 4.5
2019-Jun-18 14:00N 49°36' W 000°06'2 4.3
2019-Jun-18 13:30N 49°36' W 000°03'2 4.2
2019-Jun-18 13:00N 49°36' E 000°00'2 4.6
2019-Jun-18 12:30N 49°35' W 000°03'1 3.0
2019-Jun-18 12:01N 49°35' W 000°05'2 3.1
2019-Jun-18 11:30N 49°35' W 000°08'2 4.4
2019-Jun-18 11:00N 49°34' W 000°05'1 1.9
2019-Jun-18 10:30N 49°34' W 000°03'0 0.8
2019-Jun-18 10:00N 49°34' W 000°04'1 2.2
2019-Jun-18 09:30N 49°33' W 000°05'4 7.4
2019-Jun-18 09:00N 49°30' W 000°07'611.0
2019-Jun-18 08:30N 49°25' W 000°10'510.4
2019-Jun-18 08:00N 49°20' W 000°14'3 6.4
2019-Jun-18 07:30N 49°17' W 000°15'0 0.0
2019-Jun-18 07:00N 49°17' W 000°15'1 1.0
2019-Jun-18 06:30N 49°16' W 000°15'0 0.0
2019-Jun-18 06:00N 49°16' W 000°15'0 0.0
2019-Jun-18 05:30N 49°16' W 000°15'0 0.0
2019-Jun-18 05:00N 49°16' W 000°15'0 0.0
2019-Jun-18 04:30N 49°16' W 000°15'0 0.0
2019-Jun-18 04:00N 49°16' W 000°15'0 0.0
2019-Jun-18 03:30N 49°16' W 000°15'0 0.0
2019-Jun-18 03:00N 49°16' W 000°15'0 0.0
2019-Jun-18 02:30N 49°16' W 000°15'0 0.0
2019-Jun-18 02:00N 49°16' W 000°15'0 0.0
2019-Jun-18 01:30N 49°16' W 000°15'0 0.0
2019-Jun-18 01:00N 49°16' W 000°15'0 0.0
2019-Jun-18 00:30N 49°16' W 000°15'0 0.0
2019-Jun-18 00:00N 49°16' W 000°15'0 0.0
2019-Jun-17 23:30N 49°16' W 000°15'0 0.0
2019-Jun-17 23:00N 49°16' W 000°15'0 0.0
2019-Jun-17 22:30N 49°16' W 000°15'0 0.0
2019-Jun-17 22:00N 49°16' W 000°15'0 0.0
2019-Jun-17 21:45N 49°16' W 000°15'0 0.0
2019-Jun-17 21:36N 49°16' W 000°15'0 0.0
2019-Jun-17 21:21N 49°16' W 000°15'0 0.0
2019-Jun-17 21:00N 49°16' W 000°15'0 0.0
2019-Jun-17 20:30N 49°16' W 000°15'0 0.0
2019-Jun-17 20:00N 49°16' W 000°15'0 0.0
2019-Jun-16 23:30N 49°16' W 000°15'0 0.0
2019-Jun-16 23:00N 49°16' W 000°15'0 0.0
2019-Jun-16 22:30N 49°16' W 000°15'0 0.0
2019-Jun-16 22:00N 49°16' W 000°15'0 0.0
2019-Jun-16 21:30N 49°16' W 000°15'0 0.0
2019-Jun-16 21:00N 49°16' W 000°15'0 0.0
2019-Jun-16 20:30N 49°16' W 000°15'0 0.0
2019-Jun-16 20:00N 49°16' W 000°15'0 0.0
2019-Jun-16 19:30N 49°16' W 000°15'0 0.1
2019-Jun-16 19:00N 49°16' W 000°15'1 1.0
2019-Jun-16 18:30N 49°17' W 000°15'2 4.9
2019-Jun-16 18:01N 49°19' W 000°14'2 3.5
2019-Jun-16 17:31N 49°21' W 000°14'3 6.5
2019-Jun-16 17:01N 49°23' W 000°18'4 7.2
2019-Jun-16 16:31N 49°24' W 000°23'4 7.1
2019-Jun-16 16:00N 49°24' W 000°29'4 7.4
2019-Jun-16 15:31N 49°24' W 000°35'3 6.4
2019-Jun-16 15:00N 49°23' W 000°39'2 3.1
2019-Jun-16 14:27N 49°24' W 000°38'1 1.9
2019-Jun-16 14:00N 49°24' W 000°39'1 2.7
2019-Jun-16 13:30N 49°23' W 000°41'1 1.7
2019-Jun-16 13:00N 49°23' W 000°41'3 2.8
2019-Jun-16 12:05N 49°22' W 000°45'2 4.4
2019-Jun-16 11:37N 49°22' W 000°48'5 4.6
2019-Jun-16 10:36N 49°26' W 000°47'1 4.2
2019-Jun-16 10:23N 49°27' W 000°48'2 4.0
2019-Jun-16 10:00N 49°25' W 000°49'2 4.5
2019-Jun-16 09:28N 49°23' W 000°51'3 0.6
2019-Jun-16 04:23N 49°27' W 000°51'2 0.4
2019-Jun-15 22:37N 49°26' W 000°54'10 2.3
2019-Jun-15 18:09N 49°26' W 000°39'1 6.0
2019-Jun-15 18:00N 49°25' W 000°37'3 6.1
2019-Jun-15 17:31N 49°25' W 000°33'4 8.1
2019-Jun-15 17:00N 49°24' W 000°27'4 8.5
2019-Jun-15 16:30N 49°23' W 000°20'5 9.5
2019-Jun-15 16:01N 49°20' W 000°15'2 4.3
2019-Jun-15 15:31N 49°18' W 000°15'4 8.0
2019-Jun-15 15:00N 49°21' W 000°16'3 6.5
2019-Jun-15 14:30N 49°24' W 000°19'2 4.8
2019-Jun-15 14:00N 49°21' W 000°18'2 4.3
2019-Jun-15 13:30N 49°19' W 000°17'2 4.3
2019-Jun-15 13:01N 49°21' W 000°19'2 4.6
2019-Jun-15 12:30N 49°23' W 000°21'1 2.6
2019-Jun-15 12:00N 49°24' W 000°22'2 4.9
2019-Jun-15 11:31N 49°23' W 000°18'2 4.8
2019-Jun-15 11:00N 49°23' W 000°15'2 4.8
2019-Jun-15 10:31N 49°23' W 000°11'2 4.6
2019-Jun-15 10:00N 49°23' W 000°08'2 3.6
2019-Jun-15 09:31N 49°22' W 000°06'2 4.7
2019-Jun-15 09:01N 49°20' W 000°04'2 4.0
2019-Jun-15 08:31N 49°19' W 000°07'2 4.6
2019-Jun-15 08:00N 49°19' W 000°10'2 3.7
2019-Jun-15 07:31N 49°20' W 000°12'2 4.7
2019-Jun-15 07:00N 49°23' W 000°12'1 2.2
2019-Jun-15 06:30N 49°22' W 000°14'2 4.6
2019-Jun-15 06:01N 49°20' W 000°16'2 3.5
2019-Jun-15 05:30N 49°19' W 000°15'1 2.7
2019-Jun-15 05:01N 49°17' W 000°15'3 6.3
2019-Jun-15 04:30N 49°20' W 000°14'1 1.3
2019-Jun-15 04:00N 49°21' W 000°15'1 1.7
2019-Jun-15 03:31N 49°21' W 000°14'0 0.6
2019-Jun-15 03:00N 49°21' W 000°14'1 1.8
2019-Jun-15 02:30N 49°21' W 000°15'0 0.5
2019-Jun-15 02:01N 49°21' W 000°16'1 2.4
2019-Jun-15 01:30N 49°21' W 000°14'1 1.1
2019-Jun-15 01:01N 49°21' W 000°15'1 2.0
2019-Jun-15 00:30N 49°21' W 000°16'1 2.6
2019-Jun-15 00:01N 49°21' W 000°14'0 0.2
2019-Jun-14 23:31N 49°21' W 000°14'1 1.4
2019-Jun-14 23:00N 49°21' W 000°15'1 1.4
2019-Jun-14 22:30N 49°21' W 000°16'1 2.0
2019-Jun-14 22:00N 49°21' W 000°15'1 1.2
2019-Jun-14 21:31N 49°21' W 000°14'1 1.7
2019-Jun-14 21:01N 49°21' W 000°15'1 2.0
2019-Jun-14 20:31N 49°21' W 000°16'4 7.0
2019-Jun-14 20:00N 49°23' W 000°21'4 8.2
2019-Jun-14 19:31N 49°24' W 000°27'4 8.7
2019-Jun-14 19:00N 49°25' W 000°34'8 2.8
2019-Jun-14 16:15N 49°24' W 000°45'1 4.8
2019-Jun-14 16:00N 49°24' W 000°44'2 4.7
2019-Jun-14 15:31N 49°24' W 000°40'2 3.7
2019-Jun-14 15:00N 49°24' W 000°37'2 3.7
2019-Jun-14 14:30N 49°24' W 000°40'11 3.2
2019-Jun-14 11:00N 49°26' W 000°57'12 4.7
2019-Jun-14 08:31N 49°23' W 000°39'0 0.8
2019-Jun-14 08:00N 49°23' W 000°39'2 4.5
2019-Jun-14 07:29N 49°25' W 000°42'1 2.4
2019-Jun-14 06:57N 49°24' W 000°44'2 4.7
2019-Jun-14 06:30N 49°22' W 000°45'2 3.6
2019-Jun-14 05:58N 49°21' W 000°42'2 3.6
2019-Jun-14 05:29N 49°23' W 000°41'2 4.9
2019-Jun-14 04:59N 49°25' W 000°40'1 1.9
2019-Jun-14 04:22N 49°25' W 000°39'2 4.0
2019-Jun-14 03:48N 49°25' W 000°42'2 1.7
2019-Jun-14 02:37N 49°26' W 000°39'2 1.4
2019-Jun-14 00:55N 49°26' W 000°43'3 2.9
2019-Jun-14 00:00N 49°26' W 000°39'2 1.1
2019-Jun-13 22:34N 49°26' W 000°41'1 1.0
2019-Jun-13 21:29N 49°26' W 000°43'2 2.3
2019-Jun-13 20:25N 49°26' W 000°39'0 0.7
2019-Jun-13 20:00N 49°26' W 000°39'2 2.5
2019-Jun-13 19:15N 49°26' W 000°42'1 1.1
2019-Jun-13 18:30N 49°25' W 000°41'3 5.2
2019-Jun-13 18:00N 49°23' W 000°39'1 2.6
2019-Jun-13 17:30N 49°23' W 000°40'3 4.8
2019-Jun-13 16:52N 49°23' W 000°45'2 4.9
2019-Jun-13 16:25N 49°23' W 000°48'4 1.0
2019-Jun-13 11:54N 49°22' W 000°42'2 4.8
2019-Jun-13 11:30N 49°22' W 000°39'2 3.2
2019-Jun-13 10:59N 49°22' W 000°41'2 0.4
2019-Jun-13 05:39N 49°22' W 000°44'1 4.8
2019-Jun-13 05:31N 49°22' W 000°43'2 4.8
2019-Jun-13 05:00N 49°21' W 000°40'0 0.7
2019-Jun-13 04:30N 49°21' W 000°40'1 1.2
2019-Jun-13 04:00N 49°21' W 000°39'1 2.5
2019-Jun-13 03:30N 49°22' W 000°40'1 2.3
2019-Jun-13 03:00N 49°23' W 000°40'1 2.3
2019-Jun-13 02:30N 49°24' W 000°39'2 1.8
2019-Jun-13 01:28N 49°25' W 000°36'1 2.7
2019-Jun-13 00:57N 49°25' W 000°38'1 1.8
2019-Jun-13 00:17N 49°25' W 000°37'1 2.2
2019-Jun-13 00:00N 49°25' W 000°38'0 0.2
2019-Jun-12 23:22N 49°25' W 000°38'1 2.2
2019-Jun-12 23:00N 49°25' W 000°37'1 2.0
2019-Jun-12 22:28N 49°25' W 000°38'1 1.1
2019-Jun-12 21:33N 49°25' W 000°37'0 2.8
2019-Jun-12 21:30N 49°25' W 000°36'1 1.0
2019-Jun-12 21:00N 49°25' W 000°37'1 1.3
2019-Jun-12 20:23N 49°25' W 000°38'0 1.0
2019-Jun-12 20:00N 49°25' W 000°38'2 3.3
2019-Jun-12 19:30N 49°25' W 000°35'4 7.6
2019-Jun-12 19:00N 49°24' W 000°30'4 7.3
2019-Jun-12 18:31N 49°23' W 000°24'3 6.9
2019-Jun-12 18:01N 49°22' W 000°20'3 5.8
2019-Jun-12 17:30N 49°20' W 000°17'2 4.8
2019-Jun-12 17:01N 49°22' W 000°16'2 4.8
2019-Jun-12 16:31N 49°24' W 000°16'2 3.8
2019-Jun-12 16:00N 49°23' W 000°14'2 4.8
2019-Jun-12 15:31N 49°21' W 000°13'2 4.6
2019-Jun-12 15:01N 49°19' W 000°12'2 3.4
2019-Jun-12 14:30N 49°20' W 000°10'2 4.8
2019-Jun-12 14:01N 49°22' W 000°08'2 3.9
2019-Jun-12 13:31N 49°23' W 000°06'2 4.7
2019-Jun-12 13:01N 49°22' W 000°03'1 2.7
2019-Jun-12 12:30N 49°21' W 000°05'2 4.9
2019-Jun-12 12:00N 49°21' W 000°09'2 4.8
2019-Jun-12 11:30N 49°21' W 000°12'2 4.8
2019-Jun-12 11:01N 49°21' W 000°16'2 4.8
2019-Jun-12 10:31N 49°21' W 000°20'1 1.9
2019-Jun-12 10:01N 49°20' W 000°20'2 4.6
2019-Jun-12 09:30N 49°20' W 000°16'2 4.9
2019-Jun-12 09:00N 49°20' W 000°13'2 4.8
2019-Jun-12 08:31N 49°19' W 000°09'2 4.7
2019-Jun-12 08:01N 49°20' W 000°05'2 4.7
2019-Jun-12 07:30N 49°21' W 000°02'4 8.8
2019-Jun-12 07:01N 49°25' W 000°01'5 9.5
2019-Jun-12 06:30N 49°30' E 000°02'3 6.3
2019-Jun-12 06:01N 49°29' E 000°07'0 0.6
2019-Jun-12 05:28N 49°29' E 000°07'0 0.0
2019-Jun-12 04:58N 49°29' E 000°07'0 0.0
2019-Jun-12 04:28N 49°29' E 000°07'0 0.0
2019-Jun-12 03:58N 49°29' E 000°07'0 0.0
2019-Jun-12 03:28N 49°29' E 000°07'0 0.0
2019-Jun-12 02:58N 49°29' E 000°07'0 0.0
2019-Jun-12 01:58N 49°29' E 000°07'0 0.0
2019-Jun-12 01:28N 49°29' E 000°07'0 0.0
2019-Jun-12 00:58N 49°29' E 000°07'0 0.0
2019-Jun-12 00:28N 49°29' E 000°07'0 0.0
2019-Jun-11 23:58N 49°29' E 000°07'0 0.0
2019-Jun-11 23:28N 49°29' E 000°07'0 0.0
2019-Jun-11 22:58N 49°29' E 000°07'0 0.0
2019-Jun-11 22:28N 49°29' E 000°07'0 0.0
2019-Jun-11 21:58N 49°29' E 000°07'0 0.0
2019-Jun-11 21:28N 49°29' E 000°07'0 0.0
2019-Jun-11 20:58N 49°29' E 000°07'0 0.0
2019-Jun-11 20:28N 49°29' E 000°07'0 0.0
2019-Jun-11 19:58N 49°29' E 000°07'0 0.0
2019-Jun-11 19:28N 49°29' E 000°07'0 0.0
2019-Jun-11 18:58N 49°29' E 000°07'0 0.0
2019-Jun-11 18:28N 49°29' E 000°07'0 0.0
2019-Jun-11 17:58N 49°29' E 000°07'0 0.0
2019-Jun-11 17:28N 49°29' E 000°07'0 0.0
2019-Jun-11 16:58N 49°29' E 000°07'0 0.0
2019-Jun-11 16:28N 49°29' E 000°07'0 0.0
2019-Jun-11 15:58N 49°29' E 000°07'0 0.0
2019-Jun-11 15:28N 49°29' E 000°07'0 0.0
2019-Jun-11 14:58N 49°29' E 000°07'0 0.0
2019-Jun-11 14:28N 49°29' E 000°07'0 0.0
2019-Jun-11 13:58N 49°29' E 000°07'0 0.0
2019-Jun-11 13:28N 49°29' E 000°07'0 0.0
2019-Jun-11 12:58N 49°29' E 000°07'0 0.0
2019-Jun-11 12:28N 49°29' E 000°07'0 0.0
2019-Jun-11 11:58N 49°29' E 000°07'0 0.0
2019-Jun-11 11:28N 49°29' E 000°07'0 0.0
2019-Jun-11 10:58N 49°29' E 000°07'0 0.0
2019-Jun-11 10:28N 49°29' E 000°07'0 0.0
2019-Jun-11 09:58N 49°29' E 000°07'0 0.0
2019-Jun-11 09:28N 49°29' E 000°07'0 0.0
2019-Jun-11 08:58N 49°29' E 000°07'0 0.0
2019-Jun-11 08:28N 49°29' E 000°07'0 0.0
2019-Jun-11 07:58N 49°29' E 000°07'0 0.0
2019-Jun-11 07:28N 49°29' E 000°07'0 0.0
2019-Jun-11 06:55N 49°29' E 000°07'0 0.0
2019-Jun-11 06:28N 49°29' E 000°07'0 0.0
2019-Jun-11 05:58N 49°29' E 000°07'0 0.0
2019-Jun-11 05:28N 49°29' E 000°07'0 0.0
2019-Jun-11 04:58N 49°29' E 000°07'0 0.0
2019-Jun-11 04:28N 49°29' E 000°07'0 0.0
2019-Jun-11 03:58N 49°29' E 000°07'0 0.0
2019-Jun-11 03:28N 49°29' E 000°07'0 0.0
2019-Jun-11 02:58N 49°29' E 000°07'0 0.0
2019-Jun-11 02:28N 49°29' E 000°07'0 0.0
2019-Jun-11 01:58N 49°29' E 000°07'0 0.0
2019-Jun-11 01:28N 49°29' E 000°07'0 0.0
2019-Jun-11 00:58N 49°29' E 000°07'0 0.0
2019-Jun-11 00:28N 49°29' E 000°07'0 0.0
2019-Jun-10 23:58N 49°29' E 000°07'0 0.0
2019-Jun-10 23:28N 49°29' E 000°07'0 0.0
2019-Jun-10 22:58N 49°29' E 000°07'0 0.0
2019-Jun-10 22:28N 49°29' E 000°07'0 0.0
2019-Jun-10 21:58N 49°29' E 000°07'0 0.0
2019-Jun-10 21:28N 49°29' E 000°07'0 0.0
2019-Jun-10 20:58N 49°29' E 000°07'0 0.0
2019-Jun-10 20:28N 49°29' E 000°07'0 0.0
2019-Jun-10 19:58N 49°29' E 000°07'0 0.0
2019-Jun-10 19:28N 49°29' E 000°07'0 0.0
2019-Jun-10 18:58N 49°29' E 000°07'0 0.0
2019-Jun-10 18:28N 49°29' E 000°07'0 0.0
2019-Jun-10 17:58N 49°29' E 000°07'0 0.0
2019-Jun-10 17:28N 49°29' E 000°07'0 0.0
2019-Jun-10 16:58N 49°29' E 000°07'0 0.0
2019-Jun-10 16:28N 49°29' E 000°07'0 0.0
2019-Jun-10 15:58N 49°29' E 000°07'0 0.0
2019-Jun-10 15:28N 49°29' E 000°07'0 0.0
2019-Jun-10 14:58N 49°29' E 000°07'0 0.0
2019-Jun-10 14:25N 49°29' E 000°07'0 0.0
2019-Jun-10 13:58N 49°29' E 000°07'1 1.1
2019-Jun-10 13:30N 49°29' E 000°07'3 5.8
2019-Jun-10 13:00N 49°30' E 000°02'2 3.5
2019-Jun-10 12:30N 49°31' E 000°02'2 4.8
2019-Jun-10 12:00N 49°32' W 000°01'2 4.6
2019-Jun-10 11:30N 49°33' W 000°04'1 2.6
2019-Jun-10 11:00N 49°34' W 000°05'2 3.9
2019-Jun-10 10:30N 49°34' W 000°02'2 4.6
2019-Jun-10 10:00N 49°33' E 000°01'2 3.9
2019-Jun-10 09:30N 49°32' E 000°04'2 3.9
2019-Jun-10 09:00N 49°34' E 000°02'2 4.6
2019-Jun-10 08:30N 49°34' W 000°02'2 3.9
2019-Jun-10 08:00N 49°36' E 000°01'2 4.8
2019-Jun-10 07:30N 49°35' E 000°04'2 3.4
2019-Jun-10 07:00N 49°35' E 000°06'2 4.7
2019-Jun-10 06:30N 49°37' E 000°03'1 2.3
2019-Jun-10 06:00N 49°37' E 000°05'2 3.7
2019-Jun-10 05:30N 49°37' E 000°07'2 3.7
2019-Jun-10 05:00N 49°38' E 000°06'2 3.9
2019-Jun-10 04:30N 49°39' E 000°09'0 0.5
2019-Jun-10 03:57N 49°39' E 000°09'0 0.0
2019-Jun-10 03:27N 49°39' E 000°09'0 0.0
2019-Jun-10 03:00N 49°39' E 000°09'0 0.0
2019-Jun-10 02:21N 49°39' E 000°09'0 0.0
2019-Jun-10 02:00N 49°39' E 000°09'0 0.0
2019-Jun-10 01:30N 49°39' E 000°09'0 0.0
2019-Jun-10 00:57N 49°39' E 000°09'0 0.0
2019-Jun-10 00:30N 49°39' E 000°09'0 0.0
2019-Jun-10 00:00N 49°39' E 000°09'0 0.0
2019-Jun-09 23:21N 49°39' E 000°09'0 0.0
2019-Jun-09 23:00N 49°39' E 000°09'0 0.0
2019-Jun-09 22:30N 49°39' E 000°09'0 0.0
2019-Jun-09 22:00N 49°39' E 000°09'0 0.0
2019-Jun-09 21:21N 49°39' E 000°09'0 0.0
2019-Jun-09 20:57N 49°39' E 000°09'0 0.0
2019-Jun-09 20:21N 49°39' E 000°09'0 0.0
2019-Jun-09 20:00N 49°39' E 000°09'0 0.0
2019-Jun-09 19:27N 49°39' E 000°09'0 0.0
2019-Jun-09 19:00N 49°39' E 000°09'0 0.0
2019-Jun-09 18:30N 49°39' E 000°09'0 0.0
2019-Jun-09 17:57N 49°39' E 000°09'0 0.0
2019-Jun-09 17:21N 49°39' E 000°09'0 0.0
2019-Jun-09 17:00N 49°39' E 000°09'0 0.8
2019-Jun-09 16:30N 49°39' E 000°09'3 5.2
2019-Jun-09 16:00N 49°38' E 000°05'2 4.8
2019-Jun-09 15:31N 49°36' E 000°03'2 4.9
2019-Jun-09 15:00N 49°34' E 000°01'2 4.7
2019-Jun-09 14:30N 49°32' W 000°00'2 3.4
2019-Jun-09 14:01N 49°33' E 000°01'2 4.7
2019-Jun-09 13:30N 49°35' E 000°03'2 4.9
2019-Jun-09 13:00N 49°37' E 000°05'2 3.8
2019-Jun-09 12:31N 49°39' E 000°06'2 4.0
2019-Jun-09 12:00N 49°37' E 000°05'2 5.0
2019-Jun-09 11:30N 49°35' E 000°03'2 4.9
2019-Jun-09 11:00N 49°33' E 000°02'1 2.3
2019-Jun-09 10:31N 49°31' E 000°02'2 3.8
2019-Jun-09 10:01N 49°33' E 000°03'2 4.9
2019-Jun-09 09:31N 49°35' E 000°05'2 4.9
2019-Jun-09 09:00N 49°37' E 000°06'1 2.8
2019-Jun-09 08:30N 49°39' E 000°08'2 4.8
2019-Jun-09 08:00N 49°36' E 000°06'2 4.9
2019-Jun-09 07:30N 49°34' E 000°04'2 4.8
2019-Jun-09 07:00N 49°32' E 000°03'1 1.1
2019-Jun-09 06:31N 49°32' E 000°03'3 5.1
2019-Jun-09 06:01N 49°34' E 000°05'3 5.2
2019-Jun-09 05:31N 49°36' E 000°07'2 4.9
2019-Jun-09 05:00N 49°38' E 000°08'2 1.6
2019-Jun-09 04:00N 49°39' E 000°06'1 2.2
2019-Jun-09 03:30N 49°38' E 000°07'1 2.4
2019-Jun-09 03:00N 49°39' E 000°06'2 3.1
2019-Jun-09 02:30N 49°41' E 000°06'2 3.8
2019-Jun-09 02:00N 49°42' E 000°08'2 3.7
2019-Jun-09 01:30N 49°43' E 000°10'1 2.8
2019-Jun-09 01:00N 49°44' E 000°12'1 2.6
2019-Jun-09 00:30N 49°45' E 000°14'1 2.0
2019-Jun-09 00:01N 49°45' E 000°15'1 1.9
2019-Jun-08 23:30N 49°46' E 000°16'1 1.9
2019-Jun-08 23:01N 49°46' E 000°18'1 1.8
2019-Jun-08 22:31N 49°47' E 000°19'1 2.3
2019-Jun-08 22:00N 49°47' E 000°20'2 3.1
2019-Jun-08 21:31N 49°48' E 000°22'  
Track history (hours):
 
Tides and Currents Weather Stations Pressure Air Temp Water Temp Dewpoint Dewpoint Depression Visibility Wind Speed Wind Dir Waves Ship Positions

Oceanographic research ship Thalia (France)

Detailed information on ship capabilities available from University of Delaware's Ocean Information Center.

Last reported at 2019-Jun-19 20:27 UTC. Time now 2019-Jun-19 20:50 UTC.
Position N 49°20' W 000°12'.

Length 25 m; beam 7 m.

Type: Fishing. MMSI: 227270000.

Date/timePositionNaut miles runAvg speedWind from/ knotsBaromVisibWave heightAir tempDewpointWater temp
2019-Jun-19 20:27N 49°20' W 000°12'0 0.0
2019-Jun-19 19:54N 49°20' W 000°12'0 0.0
2019-Jun-19 19:27N 49°20' W 000°12'0 0.0
2019-Jun-19 18:57N 49°20' W 000°12'0 0.0
2019-Jun-19 18:30N 49°20' W 000°12'0 0.0
2019-Jun-19 18:00N 49°20' W 000°12'0 0.0
2019-Jun-19 17:30N 49°20' W 000°12'0 0.0
2019-Jun-19 17:00N 49°20' W 000°12'0 0.8
2019-Jun-19 16:30N 49°20' W 000°12'1 1.9
2019-Jun-19 16:00N 49°19' W 000°12'1 1.2
2019-Jun-19 15:31N 49°19' W 000°11'1 2.3
2019-Jun-19 15:00N 49°20' W 000°10'1 1.1
2019-Jun-19 14:30N 49°20' W 000°11'0 0.8
2019-Jun-19 14:00N 49°20' W 000°12'1 1.2
2019-Jun-19 13:30N 49°20' W 000°12'0 0.6
2019-Jun-19 13:00N 49°20' W 000°13'0 0.9
2019-Jun-19 12:30N 49°20' W 000°13'1 1.0
2019-Jun-19 12:00N 49°19' W 000°14'1 1.9
2019-Jun-19 11:30N 49°20' W 000°14'4 7.3
2019-Jun-19 11:00N 49°24' W 000°13'510.2
2019-Jun-19 10:30N 49°29' W 000°13'5 9.7
2019-Jun-19 10:00N 49°34' W 000°13'5 9.1
2019-Jun-19 09:30N 49°38' W 000°13'2 4.2
2019-Jun-19 09:00N 49°38' W 000°10'2 4.3
2019-Jun-19 08:30N 49°38' W 000°06'2 4.4
2019-Jun-19 08:00N 49°38' W 000°03'1 2.1
2019-Jun-19 07:30N 49°38' W 000°01'2 3.7
2019-Jun-19 07:00N 49°37' E 000°01'2 3.8
2019-Jun-19 06:30N 49°38' E 000°03'2 3.1
2019-Jun-19 06:00N 49°40' E 000°03'2 3.5
2019-Jun-19 05:30N 49°40' E 000°06'1 1.4
2019-Jun-19 05:00N 49°40' E 000°07'0 0.5
2019-Jun-19 04:30N 49°41' E 000°07'0 0.8
2019-Jun-19 04:00N 49°41' E 000°07'0 0.8
2019-Jun-19 03:30N 49°41' E 000°06'0 0.7
2019-Jun-19 03:00N 49°40' E 000°06'1 1.4
2019-Jun-19 02:00N 49°42' E 000°07'1 1.3
2019-Jun-19 01:30N 49°41' E 000°06'0 0.7
2019-Jun-19 01:00N 49°41' E 000°06'1 2.3
2019-Jun-19 00:30N 49°42' E 000°07'0 0.2
2019-Jun-19 00:00N 49°42' E 000°07'1 2.0
2019-Jun-18 23:30N 49°41' E 000°06'0 0.7
2019-Jun-18 23:00N 49°41' E 000°07'0 0.9
2019-Jun-18 22:30N 49°42' E 000°07'0 0.5
2019-Jun-18 22:00N 49°42' E 000°07'0 0.4
2019-Jun-18 21:30N 49°42' E 000°08'0 0.6
2019-Jun-18 21:00N 49°42' E 000°08'0 0.8
2019-Jun-18 20:30N 49°42' E 000°07'2 3.1
2019-Jun-18 20:00N 49°41' E 000°06'1 1.0
2019-Jun-18 19:30N 49°41' E 000°07'1 1.7
2019-Jun-18 19:00N 49°42' E 000°07'0 0.1
2019-Jun-18 18:30N 49°42' E 000°07'1 1.1
2019-Jun-18 18:00N 49°41' E 000°07'0 1.0
2019-Jun-18 17:30N 49°41' E 000°06'3 6.4
2019-Jun-18 17:00N 49°39' E 000°02'3 6.8
2019-Jun-18 16:30N 49°38' W 000°03'1 1.4
2019-Jun-18 16:00N 49°37' W 000°03'2 4.3
2019-Jun-18 15:30N 49°37' W 000°06'2 4.3
2019-Jun-18 15:00N 49°37' W 000°10'1 2.0
2019-Jun-18 14:30N 49°36' W 000°10'2 4.5
2019-Jun-18 14:00N 49°36' W 000°06'2 4.3
2019-Jun-18 13:30N 49°36' W 000°03'2 4.2
2019-Jun-18 13:00N 49°36' E 000°00'2 4.6
2019-Jun-18 12:30N 49°35' W 000°03'1 3.0
2019-Jun-18 12:01N 49°35' W 000°05'2 3.1
2019-Jun-18 11:30N 49°35' W 000°08'2 4.4
2019-Jun-18 11:00N 49°34' W 000°05'1 1.9
2019-Jun-18 10:30N 49°34' W 000°03'0 0.8
2019-Jun-18 10:00N 49°34' W 000°04'1 2.2
2019-Jun-18 09:30N 49°33' W 000°05'4 7.4
2019-Jun-18 09:00N 49°30' W 000°07'611.0
2019-Jun-18 08:30N 49°25' W 000°10'510.4
2019-Jun-18 08:00N 49°20' W 000°14'3 6.4
2019-Jun-18 07:30N 49°17' W 000°15'0 0.0
2019-Jun-18 07:00N 49°17' W 000°15'1 1.0
2019-Jun-18 06:30N 49°16' W 000°15'0 0.0
2019-Jun-18 06:00N 49°16' W 000°15'0 0.0
2019-Jun-18 05:30N 49°16' W 000°15'0 0.0
2019-Jun-18 05:00N 49°16' W 000°15'0 0.0
2019-Jun-18 04:30N 49°16' W 000°15'0 0.0
2019-Jun-18 04:00N 49°16' W 000°15'0 0.0
2019-Jun-18 03:30N 49°16' W 000°15'0 0.0
2019-Jun-18 03:00N 49°16' W 000°15'0 0.0
2019-Jun-18 02:30N 49°16' W 000°15'0 0.0
2019-Jun-18 02:00N 49°16' W 000°15'0 0.0
2019-Jun-18 01:30N 49°16' W 000°15'0 0.0
2019-Jun-18 01:00N 49°16' W 000°15'0 0.0
2019-Jun-18 00:30N 49°16' W 000°15'0 0.0
2019-Jun-18 00:00N 49°16' W 000°15'0 0.0
2019-Jun-17 23:30N 49°16' W 000°15'0 0.0
2019-Jun-17 23:00N 49°16' W 000°15'0 0.0
2019-Jun-17 22:30N 49°16' W 000°15'0 0.0
2019-Jun-17 22:00N 49°16' W 000°15'0 0.0
2019-Jun-17 21:45N 49°16' W 000°15'0 0.0
2019-Jun-17 21:36N 49°16' W 000°15'0 0.0
2019-Jun-17 21:21N 49°16' W 000°15'0 0.0
2019-Jun-17 21:00N 49°16' W 000°15'0 0.0
2019-Jun-17 20:30N 49°16' W 000°15'0 0.0
2019-Jun-17 20:00N 49°16' W 000°15'0 0.0
2019-Jun-16 23:30N 49°16' W 000°15'0 0.0
2019-Jun-16 23:00N 49°16' W 000°15'0 0.0
2019-Jun-16 22:30N 49°16' W 000°15'0 0.0
2019-Jun-16 22:00N 49°16' W 000°15'0 0.0
2019-Jun-16 21:30N 49°16' W 000°15'0 0.0
2019-Jun-16 21:00N 49°16' W 000°15'0 0.0
2019-Jun-16 20:30N 49°16' W 000°15'0 0.0
2019-Jun-16 20:00N 49°16' W 000°15'0 0.0
2019-Jun-16 19:30N 49°16' W 000°15'0 0.1
2019-Jun-16 19:00N 49°16' W 000°15'1 1.0
2019-Jun-16 18:30N 49°17' W 000°15'2 4.9
2019-Jun-16 18:01N 49°19' W 000°14'2 3.5
2019-Jun-16 17:31N 49°21' W 000°14'3 6.5
2019-Jun-16 17:01N 49°23' W 000°18'4 7.2
2019-Jun-16 16:31N 49°24' W 000°23'4 7.1
2019-Jun-16 16:00N 49°24' W 000°29'4 7.4
2019-Jun-16 15:31N 49°24' W 000°35'3 6.4
2019-Jun-16 15:00N 49°23' W 000°39'2 3.1
2019-Jun-16 14:27N 49°24' W 000°38'1 1.9
2019-Jun-16 14:00N 49°24' W 000°39'1 2.7
2019-Jun-16 13:30N 49°23' W 000°41'1 1.7
2019-Jun-16 13:00N 49°23' W 000°41'3 2.8
2019-Jun-16 12:05N 49°22' W 000°45'2 4.4
2019-Jun-16 11:37N 49°22' W 000°48'5 4.6
2019-Jun-16 10:36N 49°26' W 000°47'1 4.2
2019-Jun-16 10:23N 49°27' W 000°48'2 4.0
2019-Jun-16 10:00N 49°25' W 000°49'2 4.5
2019-Jun-16 09:28N 49°23' W 000°51'3 0.6
2019-Jun-16 04:23N 49°27' W 000°51'2 0.4
2019-Jun-15 22:37N 49°26' W 000°54'10 2.3
2019-Jun-15 18:09N 49°26' W 000°39'1 6.0
2019-Jun-15 18:00N 49°25' W 000°37'3 6.1
2019-Jun-15 17:31N 49°25' W 000°33'4 8.1
2019-Jun-15 17:00N 49°24' W 000°27'4 8.5
2019-Jun-15 16:30N 49°23' W 000°20'5 9.5
2019-Jun-15 16:01N 49°20' W 000°15'2 4.3
2019-Jun-15 15:31N 49°18' W 000°15'4 8.0
2019-Jun-15 15:00N 49°21' W 000°16'3 6.5
2019-Jun-15 14:30N 49°24' W 000°19'2 4.8
2019-Jun-15 14:00N 49°21' W 000°18'2 4.3
2019-Jun-15 13:30N 49°19' W 000°17'2 4.3
2019-Jun-15 13:01N 49°21' W 000°19'2 4.6
2019-Jun-15 12:30N 49°23' W 000°21'1 2.6
2019-Jun-15 12:00N 49°24' W 000°22'2 4.9
2019-Jun-15 11:31N 49°23' W 000°18'2 4.8
2019-Jun-15 11:00N 49°23' W 000°15'2 4.8
2019-Jun-15 10:31N 49°23' W 000°11'2 4.6
2019-Jun-15 10:00N 49°23' W 000°08'2 3.6
2019-Jun-15 09:31N 49°22' W 000°06'2 4.7
2019-Jun-15 09:01N 49°20' W 000°04'2 4.0
2019-Jun-15 08:31N 49°19' W 000°07'2 4.6
2019-Jun-15 08:00N 49°19' W 000°10'2 3.7
2019-Jun-15 07:31N 49°20' W 000°12'2 4.7
2019-Jun-15 07:00N 49°23' W 000°12'1 2.2
2019-Jun-15 06:30N 49°22' W 000°14'2 4.6
2019-Jun-15 06:01N 49°20' W 000°16'2 3.5
2019-Jun-15 05:30N 49°19' W 000°15'1 2.7
2019-Jun-15 05:01N 49°17' W 000°15'3 6.3
2019-Jun-15 04:30N 49°20' W 000°14'1 1.3
2019-Jun-15 04:00N 49°21' W 000°15'1 1.7
2019-Jun-15 03:31N 49°21' W 000°14'0 0.6
2019-Jun-15 03:00N 49°21' W 000°14'1 1.8
2019-Jun-15 02:30N 49°21' W 000°15'0 0.5
2019-Jun-15 02:01N 49°21' W 000°16'1 2.4
2019-Jun-15 01:30N 49°21' W 000°14'1 1.1
2019-Jun-15 01:01N 49°21' W 000°15'1 2.0
2019-Jun-15 00:30N 49°21' W 000°16'1 2.6
2019-Jun-15 00:01N 49°21' W 000°14'0 0.2
2019-Jun-14 23:31N 49°21' W 000°14'1 1.4
2019-Jun-14 23:00N 49°21' W 000°15'1 1.4
2019-Jun-14 22:30N 49°21' W 000°16'1 2.0
2019-Jun-14 22:00N 49°21' W 000°15'1 1.2
2019-Jun-14 21:31N 49°21' W 000°14'1 1.7
2019-Jun-14 21:01N 49°21' W 000°15'1 2.0
2019-Jun-14 20:31N 49°21' W 000°16'4 7.0
2019-Jun-14 20:00N 49°23' W 000°21'4 8.2
2019-Jun-14 19:31N 49°24' W 000°27'4 8.7
2019-Jun-14 19:00N 49°25' W 000°34'8 2.8
2019-Jun-14 16:15N 49°24' W 000°45'1 4.8
2019-Jun-14 16:00N 49°24' W 000°44'2 4.7
2019-Jun-14 15:31N 49°24' W 000°40'2 3.7
2019-Jun-14 15:00N 49°24' W 000°37'2 3.7
2019-Jun-14 14:30N 49°24' W 000°40'11 3.2
2019-Jun-14 11:00N 49°26' W 000°57'12 4.7
2019-Jun-14 08:31N 49°23' W 000°39'0 0.8
2019-Jun-14 08:00N 49°23' W 000°39'2 4.5
2019-Jun-14 07:29N 49°25' W 000°42'1 2.4
2019-Jun-14 06:57N 49°24' W 000°44'2 4.7
2019-Jun-14 06:30N 49°22' W 000°45'2 3.6
2019-Jun-14 05:58N 49°21' W 000°42'2 3.6
2019-Jun-14 05:29N 49°23' W 000°41'2 4.9
2019-Jun-14 04:59N 49°25' W 000°40'1 1.9
2019-Jun-14 04:22N 49°25' W 000°39'2 4.0
2019-Jun-14 03:48N 49°25' W 000°42'2 1.7
2019-Jun-14 02:37N 49°26' W 000°39'2 1.4
2019-Jun-14 00:55N 49°26' W 000°43'3 2.9
2019-Jun-14 00:00N 49°26' W 000°39'2 1.1
2019-Jun-13 22:34N 49°26' W 000°41'1 1.0
2019-Jun-13 21:29N 49°26' W 000°43'2 2.3
2019-Jun-13 20:25N 49°26' W 000°39'0 0.7
2019-Jun-13 20:00N 49°26' W 000°39'2 2.5
2019-Jun-13 19:15N 49°26' W 000°42'1 1.1
2019-Jun-13 18:30N 49°25' W 000°41'3 5.2
2019-Jun-13 18:00N 49°23' W 000°39'1 2.6
2019-Jun-13 17:30N 49°23' W 000°40'3 4.8
2019-Jun-13 16:52N 49°23' W 000°45'2 4.9
2019-Jun-13 16:25N 49°23' W 000°48'4 1.0
2019-Jun-13 11:54N 49°22' W 000°42'2 4.8
2019-Jun-13 11:30N 49°22' W 000°39'2 3.2
2019-Jun-13 10:59N 49°22' W 000°41'2 0.4
2019-Jun-13 05:39N 49°22' W 000°44'1 4.8
2019-Jun-13 05:31N 49°22' W 000°43'2 4.8
2019-Jun-13 05:00N 49°21' W 000°40'0 0.7
2019-Jun-13 04:30N 49°21' W 000°40'1 1.2
2019-Jun-13 04:00N 49°21' W 000°39'1 2.5
2019-Jun-13 03:30N 49°22' W 000°40'1 2.3
2019-Jun-13 03:00N 49°23' W 000°40'1 2.3
2019-Jun-13 02:30N 49°24' W 000°39'2 1.8
2019-Jun-13 01:28N 49°25' W 000°36'1 2.7
2019-Jun-13 00:57N 49°25' W 000°38'1 1.8
2019-Jun-13 00:17N 49°25' W 000°37'1 2.2
2019-Jun-13 00:00N 49°25' W 000°38'0 0.2
2019-Jun-12 23:22N 49°25' W 000°38'1 2.2
2019-Jun-12 23:00N 49°25' W 000°37'1 2.0
2019-Jun-12 22:28N 49°25' W 000°38'1 1.1
2019-Jun-12 21:33N 49°25' W 000°37'0 2.8
2019-Jun-12 21:30N 49°25' W 000°36'1 1.0
2019-Jun-12 21:00N 49°25' W 000°37'1 1.3
2019-Jun-12 20:23N 49°25' W 000°38'0 1.0
2019-Jun-12 20:00N 49°25' W 000°38'2 3.3
2019-Jun-12 19:30N 49°25' W 000°35'4 7.6
2019-Jun-12 19:00N 49°24' W 000°30'4 7.3
2019-Jun-12 18:31N 49°23' W 000°24'3 6.9
2019-Jun-12 18:01N 49°22' W 000°20'3 5.8
2019-Jun-12 17:30N 49°20' W 000°17'2 4.8
2019-Jun-12 17:01N 49°22' W 000°16'2 4.8
2019-Jun-12 16:31N 49°24' W 000°16'2 3.8
2019-Jun-12 16:00N 49°23' W 000°14'2 4.8
2019-Jun-12 15:31N 49°21' W 000°13'2 4.6
2019-Jun-12 15:01N 49°19' W 000°12'2 3.4
2019-Jun-12 14:30N 49°20' W 000°10'2 4.8
2019-Jun-12 14:01N 49°22' W 000°08'2 3.9
2019-Jun-12 13:31N 49°23' W 000°06'2 4.7
2019-Jun-12 13:01N 49°22' W 000°03'1 2.7
2019-Jun-12 12:30N 49°21' W 000°05'2 4.9
2019-Jun-12 12:00N 49°21' W 000°09'2 4.8
2019-Jun-12 11:30N 49°21' W 000°12'2 4.8
2019-Jun-12 11:01N 49°21' W 000°16'2 4.8
2019-Jun-12 10:31N 49°21' W 000°20'1 1.9
2019-Jun-12 10:01N 49°20' W 000°20'2 4.6
2019-Jun-12 09:30N 49°20' W 000°16'2 4.9
2019-Jun-12 09:00N 49°20' W 000°13'2 4.8
2019-Jun-12 08:31N 49°19' W 000°09'2 4.7
2019-Jun-12 08:01N 49°20' W 000°05'2 4.7
2019-Jun-12 07:30N 49°21' W 000°02'4 8.8
2019-Jun-12 07:01N 49°25' W 000°01'5 9.5
2019-Jun-12 06:30N 49°30' E 000°02'3 6.3
2019-Jun-12 06:01N 49°29' E 000°07'0 0.6
2019-Jun-12 05:28N 49°29' E 000°07'0 0.0
2019-Jun-12 04:58N 49°29' E 000°07'0 0.0
2019-Jun-12 04:28N 49°29' E 000°07'0 0.0
2019-Jun-12 03:58N 49°29' E 000°07'0 0.0
2019-Jun-12 03:28N 49°29' E 000°07'0 0.0
2019-Jun-12 02:58N 49°29' E 000°07'0 0.0
2019-Jun-12 01:58N 49°29' E 000°07'0 0.0
2019-Jun-12 01:28N 49°29' E 000°07'0 0.0
2019-Jun-12 00:58N 49°29' E 000°07'0 0.0
2019-Jun-12 00:28N 49°29' E 000°07'0 0.0
2019-Jun-11 23:58N 49°29' E 000°07'0 0.0
2019-Jun-11 23:28N 49°29' E 000°07'0 0.0
2019-Jun-11 22:58N 49°29' E 000°07'0 0.0
2019-Jun-11 22:28N 49°29' E 000°07'0 0.0
2019-Jun-11 21:58N 49°29' E 000°07'0 0.0
2019-Jun-11 21:28N 49°29' E 000°07'0 0.0
2019-Jun-11 20:58N 49°29' E 000°07'0 0.0
2019-Jun-11 20:28N 49°29' E 000°07'0 0.0
2019-Jun-11 19:58N 49°29' E 000°07'0 0.0
2019-Jun-11 19:28N 49°29' E 000°07'0 0.0
2019-Jun-11 18:58N 49°29' E 000°07'0 0.0
2019-Jun-11 18:28N 49°29' E 000°07'0 0.0
2019-Jun-11 17:58N 49°29' E 000°07'0 0.0
2019-Jun-11 17:28N 49°29' E 000°07'0 0.0
2019-Jun-11 16:58N 49°29' E 000°07'0 0.0
2019-Jun-11 16:28N 49°29' E 000°07'0 0.0
2019-Jun-11 15:58N 49°29' E 000°07'0 0.0
2019-Jun-11 15:28N 49°29' E 000°07'0 0.0
2019-Jun-11 14:58N 49°29' E 000°07'0 0.0
2019-Jun-11 14:28N 49°29' E 000°07'0 0.0
2019-Jun-11 13:58N 49°29' E 000°07'0 0.0
2019-Jun-11 13:28N 49°29' E 000°07'0 0.0
2019-Jun-11 12:58N 49°29' E 000°07'0 0.0
2019-Jun-11 12:28N 49°29' E 000°07'0 0.0
2019-Jun-11 11:58N 49°29' E 000°07'0 0.0
2019-Jun-11 11:28N 49°29' E 000°07'0 0.0
2019-Jun-11 10:58N 49°29' E 000°07'0 0.0
2019-Jun-11 10:28N 49°29' E 000°07'0 0.0
2019-Jun-11 09:58N 49°29' E 000°07'0 0.0
2019-Jun-11 09:28N 49°29' E 000°07'0 0.0
2019-Jun-11 08:58N 49°29' E 000°07'0 0.0
2019-Jun-11 08:28N 49°29' E 000°07'0 0.0
2019-Jun-11 07:58N 49°29' E 000°07'0 0.0
2019-Jun-11 07:28N 49°29' E 000°07'0 0.0
2019-Jun-11 06:55N 49°29' E 000°07'0 0.0
2019-Jun-11 06:28N 49°29' E 000°07'0 0.0
2019-Jun-11 05:58N 49°29' E 000°07'0 0.0
2019-Jun-11 05:28N 49°29' E 000°07'0 0.0
2019-Jun-11 04:58N 49°29' E 000°07'0 0.0
2019-Jun-11 04:28N 49°29' E 000°07'0 0.0
2019-Jun-11 03:58N 49°29' E 000°07'0 0.0
2019-Jun-11 03:28N 49°29' E 000°07'0 0.0
2019-Jun-11 02:58N 49°29' E 000°07'0 0.0
2019-Jun-11 02:28N 49°29' E 000°07'0 0.0
2019-Jun-11 01:58N 49°29' E 000°07'0 0.0
2019-Jun-11 01:28N 49°29' E 000°07'0 0.0
2019-Jun-11 00:58N 49°29' E 000°07'0 0.0
2019-Jun-11 00:28N 49°29' E 000°07'0 0.0
2019-Jun-10 23:58N 49°29' E 000°07'0 0.0
2019-Jun-10 23:28N 49°29' E 000°07'0 0.0
2019-Jun-10 22:58N 49°29' E 000°07'0 0.0
2019-Jun-10 22:28N 49°29' E 000°07'0 0.0
2019-Jun-10 21:58N 49°29' E 000°07'0 0.0
2019-Jun-10 21:28N 49°29' E 000°07'0 0.0
2019-Jun-10 20:58N 49°29' E 000°07'0 0.0
2019-Jun-10 20:28N 49°29' E 000°07'0 0.0
2019-Jun-10 19:58N 49°29' E 000°07'0 0.0
2019-Jun-10 19:28N 49°29' E 000°07'0 0.0
2019-Jun-10 18:58N 49°29' E 000°07'0 0.0
2019-Jun-10 18:28N 49°29' E 000°07'0 0.0
2019-Jun-10 17:58N 49°29' E 000°07'0 0.0
2019-Jun-10 17:28N 49°29' E 000°07'0 0.0
2019-Jun-10 16:58N 49°29' E 000°07'0 0.0
2019-Jun-10 16:28N 49°29' E 000°07'0 0.0
2019-Jun-10 15:58N 49°29' E 000°07'0 0.0
2019-Jun-10 15:28N 49°29' E 000°07'0 0.0
2019-Jun-10 14:58N 49°29' E 000°07'0 0.0
2019-Jun-10 14:25N 49°29' E 000°07'0 0.0
2019-Jun-10 13:58N 49°29' E 000°07'1 1.1
2019-Jun-10 13:30N 49°29' E 000°07'3 5.8
2019-Jun-10 13:00N 49°30' E 000°02'2 3.5
2019-Jun-10 12:30N 49°31' E 000°02'2 4.8
2019-Jun-10 12:00N 49°32' W 000°01'2 4.6
2019-Jun-10 11:30N 49°33' W 000°04'1 2.6
2019-Jun-10 11:00N 49°34' W 000°05'2 3.9
2019-Jun-10 10:30N 49°34' W 000°02'2 4.6
2019-Jun-10 10:00N 49°33' E 000°01'2 3.9
2019-Jun-10 09:30N 49°32' E 000°04'2 3.9
2019-Jun-10 09:00N 49°34' E 000°02'2 4.6
2019-Jun-10 08:30N 49°34' W 000°02'2 3.9
2019-Jun-10 08:00N 49°36' E 000°01'2 4.8
2019-Jun-10 07:30N 49°35' E 000°04'2 3.4
2019-Jun-10 07:00N 49°35' E 000°06'2 4.7
2019-Jun-10 06:30N 49°37' E 000°03'1 2.3
2019-Jun-10 06:00N 49°37' E 000°05'2 3.7
2019-Jun-10 05:30N 49°37' E 000°07'2 3.7
2019-Jun-10 05:00N 49°38' E 000°06'2 3.9
2019-Jun-10 04:30N 49°39' E 000°09'0 0.5
2019-Jun-10 03:57N 49°39' E 000°09'0 0.0
2019-Jun-10 03:27N 49°39' E 000°09'0 0.0
2019-Jun-10 03:00N 49°39' E 000°09'0 0.0
2019-Jun-10 02:21N 49°39' E 000°09'0 0.0
2019-Jun-10 02:00N 49°39' E 000°09'0 0.0
2019-Jun-10 01:30N 49°39' E 000°09'0 0.0
2019-Jun-10 00:57N 49°39' E 000°09'0 0.0
2019-Jun-10 00:30N 49°39' E 000°09'0 0.0
2019-Jun-10 00:00N 49°39' E 000°09'0 0.0
2019-Jun-09 23:21N 49°39' E 000°09'0 0.0
2019-Jun-09 23:00N 49°39' E 000°09'0 0.0
2019-Jun-09 22:30N 49°39' E 000°09'0 0.0
2019-Jun-09 22:00N 49°39' E 000°09'0 0.0
2019-Jun-09 21:21N 49°39' E 000°09'0 0.0
2019-Jun-09 20:57N 49°39' E 000°09'0 0.0
2019-Jun-09 20:21N 49°39' E 000°09'0 0.0
2019-Jun-09 20:00N 49°39' E 000°09'0 0.0
2019-Jun-09 19:27N 49°39' E 000°09'0 0.0
2019-Jun-09 19:00N 49°39' E 000°09'0 0.0
2019-Jun-09 18:30N 49°39' E 000°09'0 0.0
2019-Jun-09 17:57N 49°39' E 000°09'0 0.0
2019-Jun-09 17:21N 49°39' E 000°09'0 0.0
2019-Jun-09 17:00N 49°39' E 000°09'0 0.8
2019-Jun-09 16:30N 49°39' E 000°09'3 5.2
2019-Jun-09 16:00N 49°38' E 000°05'2 4.8
2019-Jun-09 15:31N 49°36' E 000°03'2 4.9
2019-Jun-09 15:00N 49°34' E 000°01'2 4.7
2019-Jun-09 14:30N 49°32' W 000°00'2 3.4
2019-Jun-09 14:01N 49°33' E 000°01'2 4.7
2019-Jun-09 13:30N 49°35' E 000°03'2 4.9
2019-Jun-09 13:00N 49°37' E 000°05'2 3.8
2019-Jun-09 12:31N 49°39' E 000°06'2 4.0
2019-Jun-09 12:00N 49°37' E 000°05'2 5.0
2019-Jun-09 11:30N 49°35' E 000°03'2 4.9
2019-Jun-09 11:00N 49°33' E 000°02'1 2.3
2019-Jun-09 10:31N 49°31' E 000°02'2 3.8
2019-Jun-09 10:01N 49°33' E 000°03'2 4.9
2019-Jun-09 09:31N 49°35' E 000°05'2 4.9
2019-Jun-09 09:00N 49°37' E 000°06'1 2.8
2019-Jun-09 08:30N 49°39' E 000°08'2 4.8
2019-Jun-09 08:00N 49°36' E 000°06'2 4.9
2019-Jun-09 07:30N 49°34' E 000°04'2 4.8
2019-Jun-09 07:00N 49°32' E 000°03'1 1.1
2019-Jun-09 06:31N 49°32' E 000°03'3 5.1
2019-Jun-09 06:01N 49°34' E 000°05'3 5.2
2019-Jun-09 05:31N 49°36' E 000°07'2 4.9
2019-Jun-09 05:00N 49°38' E 000°08'2 1.6
2019-Jun-09 04:00N 49°39' E 000°06'1 2.2
2019-Jun-09 03:30N 49°38' E 000°07'1 2.4
2019-Jun-09 03:00N 49°39' E 000°06'2 3.1
2019-Jun-09 02:30N 49°41' E 000°06'2 3.8
2019-Jun-09 02:00N 49°42' E 000°08'2 3.7
2019-Jun-09 01:30N 49°43' E 000°10'1 2.8
2019-Jun-09 01:00N 49°44' E 000°12'1 2.6
2019-Jun-09 00:30N 49°45' E 000°14'1 2.0
2019-Jun-09 00:01N 49°45' E 000°15'1 1.9
2019-Jun-08 23:30N 49°46' E 000°16'1 1.9
2019-Jun-08 23:01N 49°46' E 000°18'1 1.8
2019-Jun-08 22:31N 49°47' E 000°19'1 2.3
2019-Jun-08 22:00N 49°47' E 000°20'2 3.1
2019-Jun-08 21:31N 49°48' E 000°22'  

Dump ship's entire track history